createdAt,value
2018-09-15T00:01:23.149Z,11.83
2018-09-15T00:03:52.319Z,12.57
2018-09-15T00:06:21.519Z,12.63
2018-09-15T00:08:50.514Z,13.50
2018-09-15T00:11:19.760Z,13.53
2018-09-15T00:13:49.020Z,13.57
2018-09-15T00:16:18.001Z,13.13
2018-09-15T00:18:46.935Z,13.97
2018-09-15T00:21:16.184Z,12.80
2018-09-15T00:23:52.236Z,12.33
2018-09-15T00:26:21.423Z,13.30
2018-09-15T00:28:50.694Z,13.50
2018-09-15T00:31:19.961Z,12.27
2018-09-15T00:33:48.951Z,12.80
2018-09-15T00:36:18.168Z,12.13
2018-09-15T00:38:47.193Z,12.80
2018-09-15T00:41:16.337Z,13.30
2018-09-15T00:43:45.565Z,12.83
2018-09-15T00:46:14.816Z,13.20
2018-09-15T00:48:44.041Z,13.13
2018-09-15T00:51:13.268Z,12.53
2018-09-15T00:53:42.436Z,12.23
2018-09-15T00:56:11.686Z,13.83
2018-09-15T00:58:40.909Z,13.20
2018-09-15T01:01:09.851Z,12.50
2018-09-15T01:03:39.083Z,13.07
2018-09-15T01:06:08.338Z,14.23
2018-09-15T01:08:37.631Z,13.73
2018-09-15T01:11:06.572Z,13.30
2018-09-15T01:13:35.786Z,12.67
2018-09-15T01:16:05.021Z,13.03
2018-09-15T01:18:34.295Z,13.90
2018-09-15T01:21:03.471Z,12.57
2018-09-15T01:23:32.682Z,13.30
2018-09-15T01:26:01.752Z,13.40
2018-09-15T01:28:30.946Z,15.37
2018-09-15T01:31:00.174Z,15.90
2018-09-15T01:33:29.178Z,12.83
2018-09-15T01:35:58.368Z,14.40
2018-09-15T01:38:27.356Z,13.50
2018-09-15T01:40:56.652Z,13.80
2018-09-15T01:43:25.859Z,13.80
2018-09-15T01:46:01.119Z,12.67
2018-09-15T01:48:30.312Z,13.87
2018-09-15T01:50:59.496Z,13.57
2018-09-15T01:53:28.410Z,13.23
2018-09-15T01:55:57.644Z,14.03
2018-09-15T01:58:26.803Z,14.43
2018-09-15T02:00:57.100Z,14.23
2018-09-15T02:03:27.768Z,13.00
2018-09-15T02:05:57.026Z,14.47
2018-09-15T02:08:25.979Z,13.10
2018-09-15T02:10:54.918Z,13.97
2018-09-15T02:13:24.486Z,14.40
2018-09-15T02:15:53.643Z,15.07
2018-09-15T02:18:22.853Z,14.63
2018-09-15T02:20:51.785Z,14.23
2018-09-15T02:23:20.685Z,14.93
2018-09-15T02:25:49.877Z,14.07
2018-09-15T02:28:19.014Z,14.63
2018-09-15T02:30:48.191Z,13.90
2018-09-15T02:33:17.137Z,13.80
2018-09-15T02:35:46.080Z,14.17
2018-09-15T02:38:15.283Z,14.37
2018-09-15T02:40:44.476Z,14.37
2018-09-15T02:43:13.597Z,14.03
2018-09-15T02:45:42.919Z,14.23
2018-09-15T02:48:11.890Z,13.03
2018-09-15T02:50:41.297Z,13.37
2018-09-15T02:53:10.495Z,14.73
2018-09-15T02:55:39.398Z,12.93
2018-09-15T02:58:08.568Z,13.57
2018-09-15T03:00:37.737Z,12.27
2018-09-15T03:03:06.769Z,13.10
2018-09-15T03:05:35.915Z,12.70
2018-09-15T03:08:04.876Z,13.70
2018-09-15T03:10:34.029Z,13.57
2018-09-15T03:13:02.959Z,12.60
2018-09-15T03:15:32.173Z,13.83
2018-09-15T03:18:01.441Z,13.60
2018-09-15T03:20:30.668Z,13.90
2018-09-15T03:22:59.790Z,14.60
2018-09-15T03:25:28.974Z,13.97
2018-09-15T03:27:58.160Z,15.33
2018-09-15T03:30:27.324Z,14.23
2018-09-15T03:32:56.214Z,14.00
2018-09-15T03:35:25.359Z,15.00
2018-09-15T03:37:54.506Z,14.30
2018-09-15T03:40:23.670Z,14.67
2018-09-15T03:42:52.639Z,13.73
2018-09-15T03:45:21.798Z,13.07
2018-09-15T03:47:50.702Z,13.70
2018-09-15T03:50:19.660Z,13.10
2018-09-15T03:52:48.772Z,12.57
2018-09-15T03:55:17.914Z,12.70
2018-09-15T03:57:47.092Z,13.20
2018-09-15T04:00:16.328Z,14.50
2018-09-15T04:02:45.416Z,13.70
2018-09-15T04:05:14.334Z,13.57
2018-09-15T04:07:43.529Z,13.03
2018-09-15T04:10:12.685Z,13.10
2018-09-15T04:12:41.623Z,13.10
2018-09-15T04:15:10.762Z,13.10
2018-09-15T04:17:39.711Z,12.97
2018-09-15T04:20:08.952Z,13.70
2018-09-15T04:22:37.879Z,12.20
2018-09-15T04:25:06.861Z,12.57
2018-09-15T04:27:36.058Z,13.43
2018-09-15T04:30:05.875Z,12.27
2018-09-15T04:32:35.207Z,11.83
2018-09-15T04:35:04.456Z,12.20
2018-09-15T04:37:33.687Z,11.27
2018-09-15T04:40:02.580Z,12.43
2018-09-15T04:42:31.704Z,11.77
2018-09-15T04:45:00.925Z,12.47
2018-09-15T04:47:30.058Z,11.73
2018-09-15T04:49:59.250Z,11.77
2018-09-15T04:52:28.494Z,11.70
2018-09-15T04:54:57.474Z,11.57
2018-09-15T04:57:26.402Z,12.47
2018-09-15T04:59:55.595Z,12.47
2018-09-15T05:02:24.760Z,12.83
2018-09-15T05:04:53.904Z,11.50
2018-09-15T05:07:22.851Z,11.90
2018-09-15T05:09:52.047Z,11.97
2018-09-15T05:12:20.983Z,12.17
2018-09-15T05:14:50.216Z,11.60
2018-09-15T05:17:19.271Z,11.80
2018-09-15T05:19:48.431Z,11.43
2018-09-15T05:22:17.628Z,11.87
2018-09-15T05:24:46.766Z,10.83
2018-09-15T05:27:15.952Z,11.70
2018-09-15T05:29:44.901Z,12.27
2018-09-15T05:32:13.858Z,12.10
2018-09-15T05:34:42.780Z,12.00
2018-09-15T05:37:11.939Z,11.80
2018-09-15T05:39:41.070Z,11.80
2018-09-15T05:42:10.291Z,12.17
2018-09-15T05:44:39.256Z,11.73
2018-09-15T05:47:08.149Z,11.80
2018-09-15T05:49:37.309Z,12.10
2018-09-15T05:52:06.509Z,12.10
2018-09-15T05:54:35.700Z,13.13
2018-09-15T05:57:04.888Z,12.07
2018-09-15T05:59:34.048Z,11.87
2018-09-15T06:02:03.227Z,13.00
2018-09-15T06:04:32.378Z,12.57
2018-09-15T06:07:01.497Z,12.47
2018-09-15T06:09:30.412Z,11.37
2018-09-15T06:11:59.583Z,11.30
2018-09-15T06:14:28.534Z,10.90
2018-09-15T06:16:57.695Z,11.77
2018-09-15T06:19:26.829Z,11.67
2018-09-15T06:21:56.786Z,11.63
2018-09-15T06:24:26.022Z,11.83
2018-09-15T06:26:54.903Z,10.40
2018-09-15T06:29:24.080Z,11.90
2018-09-15T06:31:53.271Z,12.30
2018-09-15T06:34:22.195Z,10.20
2018-09-15T06:36:51.347Z,10.43
2018-09-15T06:39:20.294Z,10.40
2018-09-15T06:41:49.219Z,10.73
2018-09-15T06:44:18.365Z,10.83
2018-09-15T06:46:47.576Z,11.00
2018-09-15T06:49:16.507Z,11.07
2018-09-15T06:51:45.659Z,13.67
2018-09-15T06:54:14.842Z,13.10
2018-09-15T06:56:44.013Z,13.43
2018-09-15T06:59:13.306Z,11.97
2018-09-15T07:01:42.576Z,12.73
2018-09-15T07:04:12.881Z,12.90
2018-09-15T07:06:42.447Z,12.33
2018-09-15T07:09:13.697Z,12.43
2018-09-15T07:11:42.649Z,12.63
2018-09-15T07:14:11.932Z,13.37
2018-09-15T07:16:40.919Z,12.90
2018-09-15T07:19:10.153Z,10.67
2018-09-15T07:21:39.327Z,10.37
2018-09-15T07:24:08.494Z,12.10
2018-09-15T07:26:37.732Z,12.17
2018-09-15T07:29:06.996Z,10.37
2018-09-15T07:31:36.264Z,13.87
2018-09-15T07:34:05.392Z,13.57
2018-09-15T07:36:34.575Z,12.37
2018-09-15T07:39:04.623Z,14.63
2018-09-15T07:41:33.851Z,12.60
2018-09-15T07:44:02.985Z,11.00
2018-09-15T07:46:31.991Z,12.30
2018-09-15T07:49:01.142Z,12.23
2018-09-15T07:51:30.432Z,11.60
2018-09-15T07:53:59.695Z,10.63
2018-09-15T07:56:28.870Z,10.40
2018-09-15T07:58:57.876Z,10.90
2018-09-15T08:01:27.031Z,10.97
2018-09-15T08:03:56.157Z,9.40
2018-09-15T08:06:25.375Z,8.33
2018-09-15T08:08:54.530Z,8.00
2018-09-15T08:11:23.705Z,6.83
2018-09-15T08:13:52.656Z,7.17
2018-09-15T08:16:21.550Z,5.73
2018-09-15T08:18:50.658Z,6.70
2018-09-15T08:21:19.799Z,5.50
2018-09-15T08:23:48.923Z,6.73
2018-09-15T08:26:18.153Z,7.13
2018-09-15T08:28:47.285Z,6.20
2018-09-15T08:31:16.458Z,5.73
2018-09-15T08:33:45.601Z,5.30
2018-09-15T08:36:14.763Z,5.57
2018-09-15T08:38:43.944Z,5.03
2018-09-15T08:41:12.902Z,4.83
2018-09-15T08:43:41.831Z,5.20
2018-09-15T08:46:11.085Z,5.43
2018-09-15T08:48:40.232Z,4.63
2018-09-15T08:51:09.138Z,5.57
2018-09-15T08:53:38.342Z,4.53
2018-09-15T08:56:07.555Z,4.40
2018-09-15T08:58:36.650Z,3.93
2018-09-15T09:01:05.959Z,4.10
2018-09-15T09:03:35.077Z,3.33
2018-09-15T09:06:04.231Z,2.87
2018-09-15T09:08:33.395Z,4.13
2018-09-15T09:11:02.502Z,3.27
2018-09-15T09:13:31.919Z,4.10
2018-09-15T09:16:01.070Z,3.40
2018-09-15T09:18:30.209Z,3.00
2018-09-15T09:20:59.380Z,3.10
2018-09-15T09:23:28.388Z,2.90
2018-09-15T09:25:57.462Z,2.60
2018-09-15T09:28:26.526Z,3.03
2018-09-15T09:30:55.711Z,3.30
2018-09-15T09:33:24.656Z,3.10
2018-09-15T09:35:53.606Z,2.90
2018-09-15T09:38:22.918Z,2.47
2018-09-15T09:40:52.020Z,2.03
2018-09-15T09:43:20.957Z,2.60
2018-09-15T09:45:49.834Z,2.00
2018-09-15T09:48:19.078Z,1.77
2018-09-15T09:50:48.343Z,1.97
2018-09-15T09:53:17.514Z,1.60
2018-09-15T09:55:46.664Z,2.20
2018-09-15T09:58:15.822Z,2.10
2018-09-15T10:00:50.173Z,2.03
2018-09-15T10:03:19.368Z,1.50
2018-09-15T10:05:48.284Z,1.53
2018-09-15T10:08:17.498Z,1.30
2018-09-15T10:10:46.708Z,1.53
2018-09-15T10:13:15.649Z,1.90
2018-09-15T10:15:44.892Z,2.00
2018-09-15T10:18:14.105Z,1.93
2018-09-15T10:20:43.478Z,2.00
2018-09-15T10:23:12.819Z,1.50
2018-09-15T10:25:41.939Z,1.43
2018-09-15T10:28:11.105Z,1.50
2018-09-15T10:30:40.218Z,1.60
2018-09-15T10:33:09.399Z,1.33
2018-09-15T10:35:38.712Z,1.60
2018-09-15T10:38:07.671Z,1.23
2018-09-15T10:40:36.639Z,1.30
2018-09-15T10:43:05.639Z,1.70
2018-09-15T10:45:34.785Z,1.70
2018-09-15T10:48:03.940Z,1.50
2018-09-15T10:50:33.274Z,1.50
2018-09-15T10:53:02.545Z,1.60
2018-09-15T10:55:31.909Z,1.50
2018-09-15T10:58:00.851Z,1.67
2018-09-15T11:00:30.018Z,1.30
2018-09-15T11:02:59.251Z,1.20
2018-09-15T11:05:28.266Z,1.30
2018-09-15T11:07:57.151Z,1.30
2018-09-15T11:10:26.112Z,1.10
2018-09-15T11:12:55.045Z,1.50
2018-09-15T11:15:23.967Z,1.10
2018-09-15T11:17:52.876Z,1.30
2018-09-15T11:20:22.045Z,1.30
2018-09-15T11:22:51.304Z,1.23
2018-09-15T11:25:20.439Z,1.30
2018-09-15T11:27:49.588Z,1.60
2018-09-15T11:30:18.504Z,1.47
2018-09-15T11:32:47.756Z,1.17
2018-09-15T11:35:16.766Z,1.20
2018-09-15T11:37:45.927Z,1.00
2018-09-15T11:40:14.881Z,1.23
2018-09-15T11:42:44.141Z,1.00
2018-09-15T11:45:13.057Z,1.07
2018-09-15T11:47:42.218Z,1.53
2018-09-15T11:50:11.149Z,1.20
2018-09-15T11:52:40.254Z,1.13
2018-09-15T11:55:09.130Z,1.20
2018-09-15T11:57:38.316Z,0.90
2018-09-15T12:00:07.836Z,0.80
2018-09-15T12:02:36.951Z,1.47
2018-09-15T12:05:06.147Z,1.33
2018-09-15T12:07:35.321Z,1.80
2018-09-15T12:10:04.630Z,1.50
2018-09-15T12:12:33.881Z,1.50
2018-09-15T12:15:06.754Z,1.57
2018-09-15T12:17:35.690Z,1.20
2018-09-15T12:20:04.754Z,1.20
2018-09-15T12:22:33.737Z,1.60
2018-09-15T12:25:02.874Z,1.17
2018-09-15T12:27:32.236Z,1.33
2018-09-15T12:30:01.379Z,1.57
2018-09-15T12:32:30.657Z,1.73
2018-09-15T12:35:00.655Z,1.87
2018-09-15T12:37:29.545Z,1.60
2018-09-15T12:39:58.716Z,1.43
2018-09-15T12:42:27.904Z,1.50
2018-09-15T12:44:57.166Z,1.50
2018-09-15T12:47:26.342Z,1.40
2018-09-15T12:49:55.668Z,1.40
2018-09-15T12:52:24.910Z,3.20
2018-09-15T12:54:53.867Z,3.10
2018-09-15T12:57:23.034Z,1.60
2018-09-15T12:59:52.191Z,1.63
2018-09-15T13:02:21.343Z,1.17
2018-09-15T13:04:50.559Z,1.53
2018-09-15T13:07:19.758Z,1.10
2018-09-15T13:09:48.733Z,1.20
2018-09-15T13:12:17.888Z,1.30
2018-09-15T13:14:47.094Z,1.10
2018-09-15T13:17:16.014Z,1.30
2018-09-15T13:19:45.370Z,0.87
2018-09-15T13:22:14.473Z,1.23
2018-09-15T13:24:43.670Z,1.00
2018-09-15T13:27:12.809Z,1.00
2018-09-15T13:29:42.042Z,1.43
2018-09-15T13:32:11.256Z,1.23
2018-09-15T13:34:40.213Z,1.07
2018-09-15T13:37:09.405Z,1.20
2018-09-15T13:39:38.625Z,1.30
2018-09-15T13:42:07.739Z,1.07
2018-09-15T13:44:36.720Z,1.30
2018-09-15T13:47:05.981Z,1.20
2018-09-15T13:49:35.345Z,1.23
2018-09-15T13:52:04.507Z,1.30
2018-09-15T13:54:33.716Z,1.00
2018-09-15T13:57:02.930Z,1.00
2018-09-15T13:59:32.102Z,0.80
2018-09-15T14:02:01.265Z,1.00
2018-09-15T14:04:30.324Z,1.00
2018-09-15T14:06:59.221Z,1.00
2018-09-15T14:09:28.422Z,0.90
2018-09-15T14:11:57.443Z,1.10
2018-09-15T14:14:26.411Z,0.97
2018-09-15T14:16:55.643Z,1.00
2018-09-15T14:19:24.848Z,1.10
2018-09-15T14:21:54.023Z,1.10
2018-09-15T14:24:23.255Z,0.90
2018-09-15T14:26:52.694Z,1.03
2018-09-15T14:29:21.923Z,0.93
2018-09-15T14:31:51.129Z,0.90
2018-09-15T14:34:20.100Z,1.20
2018-09-15T14:36:49.094Z,1.00
2018-09-15T14:39:18.327Z,1.30
2018-09-15T14:41:47.577Z,1.10
2018-09-15T14:44:16.961Z,0.90
2018-09-15T14:46:46.099Z,0.77
2018-09-15T14:49:16.456Z,0.73
2018-09-15T14:51:46.257Z,0.93
2018-09-15T14:54:15.460Z,0.90
2018-09-15T14:56:44.714Z,0.97
2018-09-15T14:59:14.529Z,0.90
2018-09-15T15:01:43.763Z,0.90
2018-09-15T15:04:12.646Z,0.90
2018-09-15T15:06:41.803Z,0.87
2018-09-15T15:09:11.223Z,1.10
2018-09-15T15:11:40.329Z,0.80
2018-09-15T15:14:09.954Z,0.87
2018-09-15T15:16:39.013Z,0.90
2018-09-15T15:19:08.729Z,1.20
2018-09-15T15:21:37.863Z,1.00
2018-09-15T15:24:07.046Z,1.17
2018-09-15T15:26:36.384Z,0.90
2018-09-15T15:29:05.738Z,1.00
2018-09-15T15:31:34.963Z,1.03
2018-09-15T15:34:04.389Z,1.10
2018-09-15T15:36:33.590Z,0.87
2018-09-15T15:39:02.489Z,0.87
2018-09-15T15:41:31.805Z,0.80
2018-09-15T15:44:00.787Z,1.23
2018-09-15T15:46:30.032Z,1.00
2018-09-15T15:48:59.285Z,0.80
2018-09-15T15:51:28.544Z,1.00
2018-09-15T15:53:57.386Z,0.97
2018-09-15T15:56:26.573Z,0.97
2018-09-15T15:58:55.910Z,1.23
2018-09-15T16:01:25.003Z,1.13
2018-09-15T16:03:54.008Z,1.20
2018-09-15T16:06:22.972Z,1.33
2018-09-15T16:08:52.579Z,1.50
2018-09-15T16:11:22.319Z,1.57
2018-09-15T16:13:51.606Z,1.00
2018-09-15T16:16:20.991Z,2.90
2018-09-15T16:18:50.188Z,2.50
2018-09-15T16:21:19.431Z,1.60
2018-09-15T16:23:48.614Z,1.73
2018-09-15T16:26:17.847Z,1.33
2018-09-15T16:28:47.030Z,1.30
2018-09-15T16:31:16.169Z,1.20
2018-09-15T16:33:45.351Z,1.30
2018-09-15T16:36:14.462Z,1.10
2018-09-15T16:38:43.378Z,1.23
2018-09-15T16:41:12.575Z,1.00
2018-09-15T16:43:41.597Z,1.10
2018-09-15T16:46:10.816Z,1.47
2018-09-15T16:48:40.032Z,1.50
2018-09-15T16:51:08.989Z,1.17
2018-09-15T16:53:38.155Z,1.10
2018-09-15T16:56:07.510Z,1.20
2018-09-15T16:58:37.902Z,1.10
2018-09-15T17:01:07.204Z,1.00
2018-09-15T17:03:36.123Z,1.40
2018-09-15T17:06:12.125Z,1.27
2018-09-15T17:08:41.148Z,1.50
2018-09-15T17:11:10.301Z,1.40
2018-09-15T17:13:39.496Z,1.50
2018-09-15T17:16:08.675Z,1.50
2018-09-15T17:18:37.841Z,1.57
2018-09-15T17:21:07.013Z,1.43
2018-09-15T17:23:36.109Z,1.57
2018-09-15T17:26:05.284Z,1.30
2018-09-15T17:28:34.512Z,1.47
2018-09-15T17:31:03.680Z,2.00
2018-09-15T17:33:33.010Z,2.20
2018-09-15T17:36:02.207Z,1.70
2018-09-15T17:38:31.158Z,1.80
2018-09-15T17:41:00.384Z,2.00
2018-09-15T17:43:29.620Z,2.20
2018-09-15T17:45:58.578Z,1.80
2018-09-15T17:48:27.831Z,2.10
2018-09-15T17:50:57.043Z,2.10
2018-09-15T17:53:26.521Z,2.30
2018-09-15T17:55:55.625Z,2.67
2018-09-15T17:58:24.937Z,3.20
2018-09-15T18:00:54.324Z,3.30
2018-09-15T18:03:23.625Z,3.47
2018-09-15T18:05:52.718Z,3.43
2018-09-15T18:08:22.018Z,3.00
2018-09-15T18:10:51.292Z,3.03
2018-09-15T18:13:20.548Z,2.57
2018-09-15T18:15:49.585Z,2.40
2018-09-15T18:18:18.947Z,2.17
2018-09-15T18:20:48.176Z,2.17
2018-09-15T18:23:17.510Z,2.20
2018-09-15T18:25:46.819Z,2.23
2018-09-15T18:28:16.148Z,2.20
2018-09-15T18:30:45.175Z,2.63
2018-09-15T18:33:14.456Z,2.60
2018-09-15T18:35:43.880Z,2.80
2018-09-15T18:38:13.008Z,2.73
2018-09-15T18:40:42.336Z,3.20
2018-09-15T18:43:11.405Z,2.43
2018-09-15T18:45:40.622Z,2.70
2018-09-15T18:48:09.932Z,2.90
2018-09-15T18:50:39.320Z,2.90
2018-09-15T18:53:08.612Z,2.77
2018-09-15T18:55:37.883Z,2.43
2018-09-15T18:58:07.242Z,2.30
2018-09-15T19:00:36.755Z,2.07
2018-09-15T19:03:05.844Z,2.70
2018-09-15T19:05:34.852Z,2.40
2018-09-15T19:08:04.077Z,2.43
2018-09-15T19:10:33.075Z,1.93
2018-09-15T19:13:02.115Z,2.00
2018-09-15T19:15:31.165Z,2.10
2018-09-15T19:18:00.528Z,2.23
2018-09-15T19:20:29.797Z,2.20
2018-09-15T19:22:59.109Z,2.70
2018-09-15T19:25:28.422Z,2.63
2018-09-15T19:27:57.732Z,2.30
2018-09-15T19:30:27.064Z,2.50
2018-09-15T19:32:56.172Z,2.00
2018-09-15T19:35:25.428Z,2.30
2018-09-15T19:37:54.740Z,2.17
2018-09-15T19:40:24.155Z,2.30
2018-09-15T19:42:53.080Z,2.83
2018-09-15T19:45:22.245Z,2.20
2018-09-15T19:47:51.182Z,2.40
2018-09-15T19:50:20.310Z,2.13
2018-09-15T19:52:49.418Z,2.97
2018-09-15T19:55:18.485Z,2.50
2018-09-15T19:57:47.639Z,2.30
2018-09-15T20:00:16.800Z,2.90
2018-09-15T20:02:45.906Z,3.37
2018-09-15T20:05:14.908Z,3.00
2018-09-15T20:07:44.120Z,3.17
2018-09-15T20:10:13.035Z,3.67
2018-09-15T20:12:42.165Z,3.30
2018-09-15T20:15:22.342Z,3.17
2018-09-15T20:17:50.343Z,3.27
2018-09-15T20:20:18.189Z,3.23
2018-09-15T20:22:47.531Z,3.27
2018-09-15T20:25:16.723Z,3.43
2018-09-15T20:27:46.235Z,3.77
2018-09-15T20:30:15.360Z,4.00
2018-09-15T20:32:44.653Z,3.37
2018-09-15T20:35:13.847Z,3.30
2018-09-15T20:37:42.896Z,3.47
2018-09-15T20:40:12.051Z,3.67
2018-09-15T20:42:41.107Z,3.63
2018-09-15T20:45:10.309Z,4.70
2018-09-15T20:47:39.794Z,5.13
2018-09-15T20:50:08.831Z,7.07
2018-09-15T20:52:38.133Z,8.27
2018-09-15T20:55:07.843Z,9.20
2018-09-15T20:57:36.894Z,10.80
2018-09-15T21:00:07.859Z,10.37
2018-09-15T21:02:36.863Z,9.43
2018-09-15T21:05:06.531Z,9.67
2018-09-15T21:07:35.698Z,8.73
2018-09-15T21:10:04.722Z,7.97
2018-09-15T21:12:33.993Z,7.73
2018-09-15T21:15:02.881Z,7.63
2018-09-15T21:17:32.035Z,7.23
2018-09-15T21:20:01.166Z,8.30
2018-09-15T21:22:30.367Z,8.67
2018-09-15T21:24:59.547Z,8.20
2018-09-15T21:27:28.712Z,7.77
2018-09-15T21:29:57.876Z,8.90
2018-09-15T21:32:26.814Z,10.53
2018-09-15T21:34:56.420Z,11.60
2018-09-15T21:37:25.601Z,11.37
2018-09-15T21:39:54.798Z,12.00
2018-09-15T21:42:24.200Z,13.47
2018-09-15T21:44:53.130Z,13.47
2018-09-15T21:47:22.118Z,14.93
2018-09-15T21:49:51.288Z,14.23
2018-09-15T21:52:20.501Z,14.87
2018-09-15T21:54:49.658Z,13.70
2018-09-15T21:57:18.937Z,13.00
2018-09-15T21:59:48.077Z,11.17
2018-09-15T22:02:17.292Z,10.77
2018-09-15T22:04:46.493Z,11.00
2018-09-15T22:07:15.677Z,11.20
2018-09-15T22:09:44.920Z,11.07
2018-09-15T22:12:14.114Z,10.87
2018-09-15T22:14:43.042Z,12.00
2018-09-15T22:17:12.240Z,10.53
2018-09-15T22:19:41.161Z,11.33
2018-09-15T22:22:10.389Z,11.40
2018-09-15T22:24:39.531Z,12.00
2018-09-15T22:27:08.497Z,12.60
2018-09-15T22:29:37.629Z,12.73
2018-09-15T22:32:07.027Z,12.30
2018-09-15T22:34:36.305Z,12.80
2018-09-15T22:37:05.315Z,13.17
2018-09-15T22:39:34.511Z,12.87
2018-09-15T22:42:03.679Z,12.73
2018-09-15T22:44:32.843Z,12.93
2018-09-15T22:47:01.762Z,11.00
2018-09-15T22:49:30.720Z,12.43
2018-09-15T22:51:59.905Z,11.47
2018-09-15T22:54:28.896Z,9.20
2018-09-15T22:56:58.091Z,10.23
2018-09-15T22:59:27.310Z,8.87
2018-09-15T23:01:56.521Z,9.47
2018-09-15T23:04:25.698Z,9.53
2018-09-15T23:06:54.675Z,9.33
2018-09-15T23:09:23.845Z,8.50
2018-09-15T23:11:52.741Z,8.70
2018-09-15T23:14:21.988Z,7.87
2018-09-15T23:16:50.935Z,8.40
2018-09-15T23:19:19.823Z,7.87
2018-09-15T23:21:49.210Z,7.47
2018-09-15T23:24:19.008Z,8.17
2018-09-15T23:26:48.183Z,7.20
2018-09-15T23:29:17.418Z,7.00
2018-09-15T23:31:46.585Z,6.47
2018-09-15T23:34:15.702Z,7.93
2018-09-15T23:36:44.851Z,6.90
2018-09-15T23:39:14.115Z,6.63
2018-09-15T23:41:43.068Z,6.50
2018-09-15T23:44:12.335Z,6.30
2018-09-15T23:46:41.650Z,6.27
2018-09-15T23:49:10.765Z,6.23
2018-09-15T23:51:39.895Z,6.10
2018-09-15T23:54:09.063Z,6.30
2018-09-15T23:56:38.007Z,6.30
2018-09-15T23:59:07.323Z,6.40
